KGAG/GAG METAR and TAF weather

Enter ICAO airport designator
Station Type Date Time Source
KGAG METAR 2018/12/17 03:53 UTC NOAA

KGAG 170353Z AUTO 00000KT 10SM CLR M02/M06 A3031 RMK AO2 SLP277 T10171061


Station Type Date Time Source
KGAG Decoded METAR 2018/12/17 03:53 UTC NOAA

GAGE AIRPORT, OK, United States (KGAG) 36-18N 99-46W 668M
Dec 16, 2018 - 10:53 PM EST / 2018.12.17 0353 UTC
Wind: Calm:0
Visibility: 10 mile(s):0
Sky conditions: clear
Temperature: 28.9 F (-1.7 C)
Dew Point: 21.0 F (-6.1 C)
Relative Humidity: 71%
Pressure (altimeter): 30.31 in. Hg (1026 hPa)
ob: KGAG 170353Z AUTO 00000KT 10SM CLR M02/M06 A3031 RMK AO2 SLP277 T10171061
cycle: 4

Station Type Date Time Source
KGAG TAF 2018/03/21 06:22 UTC NOAA

TAF KGAG 210520Z 2106/2206 VRB04KT P6SM SCT250
FM211300 16008KT P6SM SCT250
FM211800 18012G22KT P6SM BKN250


Example: see airport list